Terminal Aerodrome Forecast
Issued by NWS Des Moines, IA

Home | Current Version | Previous Version | Text Only | Print | Product List | Glossary On
Versions: 1 2 3 4 5 6 7 8 9 10 11 12 13 14 15 16 17 18 19 20
000
FTUS43 KDMX 220921 AAA
TAFALO
TAF AMD
KALO 220921Z 2209/2306 20011KT P6SM -TSRA SCT050CB SCT070 OVC110
     FM221000 10004KT 4SM BR BKN040
     FM221100 08004KT 3SM BR BKN015
     FM221500 32006KT P6SM BKN060=

USA.gov is the U.S. government's official web portal to all federal, state and local government web resources and services.